Time;durP1;ratioP1;P1;durP2;ratioP2;P2;SDS_P1;SDS_P2;PMS_P1;PMS_P2;Temp;Humidity;BMP_temperature;BMP_pressure;BME280_temperature;BME280_humidity;BME280_pressure;Samples;Min_cycle;Max_cycle;Signal;HPM_P1;HPM_P2
2023/12/24 00:01:15;;;;;;;14.60;2.85;;;9.30;99.90;;;;;;5074312;28;20436;-78
2023/12/24 00:03:41;;;;;;;14.25;3.53;;;9.30;99.90;;;;;;5057697;28;20041;-81
2023/12/24 00:06:07;;;;;;;16.60;2.85;;;9.30;99.90;;;;;;5075820;28;20033;-80
2023/12/24 00:08:33;;;;;;;18.05;3.30;;;9.30;99.90;;;;;;5075745;28;20052;-78
2023/12/24 00:10:59;;;;;;;17.33;3.60;;;9.30;99.90;;;;;;5073989;28;20040;-80
2023/12/24 00:13:26;;;;;;;20.08;3.35;;;9.20;99.90;;;;;;5074074;28;20097;-82
2023/12/24 00:15:52;;;;;;;11.98;2.88;;;9.20;99.90;;;;;;5073994;28;20093;-77
2023/12/24 00:18:19;;;;;;;15.38;3.65;;;9.20;99.90;;;;;;5073872;28;20054;-77
2023/12/24 00:20:45;;;;;;;15.30;3.25;;;9.30;99.90;;;;;;5073728;28;20052;-75
2023/12/24 00:23:11;;;;;;;18.20;2.67;;;9.30;99.90;;;;;;5056855;28;20044;-78
2023/12/24 00:25:38;;;;;;;16.75;2.83;;;9.20;99.90;;;;;;5074925;28;20040;-79
2023/12/24 00:28:04;;;;;;;14.57;3.33;;;9.30;99.90;;;;;;5075056;28;20040;-77
2023/12/24 03:57:41;;;;;;;6.15;2.78;;;9.40;99.90;;;;;;6102545;22;20056;-76
2023/12/24 04:00:07;;;;;;;7.90;2.80;;;9.40;99.90;;;;;;4993586;28;20042;-75
2023/12/24 04:02:33;;;;;;;5.90;2.20;;;9.40;99.90;;;;;;4994692;28;20038;-75
2023/12/24 04:04:58;;;;;;;7.85;2.33;;;9.40;99.90;;;;;;4994768;28;20077;-76
2023/12/24 04:07:24;;;;;;;10.63;2.75;;;9.40;99.90;;;;;;4994675;28;20405;-79
2023/12/24 04:09:49;;;;;;;6.68;3.00;;;9.40;99.90;;;;;;4995858;28;20042;-75
2023/12/24 04:12:15;;;;;;;9.13;3.17;;;9.40;99.90;;;;;;4994609;28;20050;-75
2023/12/24 04:14:41;;;;;;;4.95;2.40;;;9.40;99.90;;;;;;4994816;28;20116;-74
2023/12/24 04:17:06;;;;;;;7.95;2.90;;;9.40;99.90;;;;;;4994510;28;20089;-77
2023/12/24 04:19:32;;;;;;;6.72;3.33;;;9.40;99.90;;;;;;4994318;28;20042;-75
2023/12/24 04:21:58;;;;;;;9.23;3.45;;;9.40;99.90;;;;;;4994292;28;20046;-79
2023/12/24 04:24:24;;;;;;;6.82;3.60;;;9.40;99.90;;;;;;4994320;28;20432;-75
2023/12/24 04:26:50;;;;;;;8.43;3.95;;;9.40;99.90;;;;;;4994642;28;20042;-79
2023/12/24 04:29:15;;;;;;;7.20;4.18;;;9.40;99.90;;;;;;4995662;28;20039;-78
2023/12/24 04:31:41;;;;;;;9.98;4.38;;;9.40;99.90;;;;;;4994320;28;20093;-74
2023/12/24 04:34:07;;;;;;;12.07;4.50;;;9.50;99.90;;;;;;4994192;28;20049;-74
2023/12/24 04:36:35;;;;;;;6.65;2.80;;;9.50;99.90;;;;;;4995630;28;20043;-78
2023/12/24 04:39:02;;;;;;;7.80;2.72;;;9.60;99.90;;;;;;4994067;28;20042;-77
2023/12/24 04:41:28;;;;;;;8.38;4.13;;;9.50;99.90;;;;;;4993041;28;20046;-80
2023/12/24 04:43:57;;;;;;;8.65;3.90;;;9.60;99.90;;;;;;4995529;28;20038;-76
2023/12/24 04:46:22;;;;;;;8.77;4.43;;;9.60;99.90;;;;;;4994265;28;20048;-76
2023/12/24 04:48:48;;;;;;;8.45;3.38;;;9.50;99.90;;;;;;4995023;28;20485;-77
2023/12/24 04:51:14;;;;;;;7.88;4.07;;;9.60;99.90;;;;;;4993918;28;20050;-74
2023/12/24 04:53:40;;;;;;;9.10;4.20;;;9.60;99.90;;;;;;4994990;28;20046;-78
2023/12/24 04:56:06;;;;;;;12.50;4.78;;;9.60;99.90;;;;;;4993774;28;20054;-75
2023/12/24 04:58:31;;;;;;;10.52;4.63;;;9.60;99.90;;;;;;4993604;28;20070;-78
2023/12/24 05:00:57;;;;;;;10.38;4.60;;;9.60;99.90;;;;;;4993691;28;20045;-76
2023/12/24 05:03:23;;;;;;;10.27;5.50;;;9.70;99.90;;;;;;4995350;28;20125;-77
2023/12/24 05:05:49;;;;;;;13.60;5.40;;;9.60;99.90;;;;;;4993884;28;20081;-77
2023/12/24 05:08:14;;;;;;;12.35;5.65;;;9.70;99.90;;;;;;4993967;28;20042;-75
2023/12/24 05:10:41;;;;;;;12.18;5.90;;;9.70;99.90;;;;;;4994912;28;20118;-79
2023/12/24 05:13:07;;;;;;;15.55;5.40;;;9.70;99.90;;;;;;4995012;28;20051;-75
2023/12/24 05:15:32;;;;;;;10.93;5.55;;;9.70;99.90;;;;;;4994757;28;20055;-79
2023/12/24 05:17:58;;;;;;;9.20;4.07;;;9.70;99.90;;;;;;4993276;28;20097;-77
2023/12/24 05:20:23;;;;;;;11.50;4.93;;;9.80;99.90;;;;;;4994804;28;20043;-75
2023/12/24 05:22:49;;;;;;;5.10;2.40;;;9.80;99.90;;;;;;4994633;28;20117;-79
2023/12/24 05:25:15;;;;;;;19.27;6.47;;;9.80;99.90;;;;;;4993264;28;20124;-78
2023/12/24 05:27:41;;;;;;;16.45;5.60;;;9.80;99.90;;;;;;4993236;28;20144;-75
2023/12/24 05:30:07;;;;;;;20.08;6.32;;;9.90;99.90;;;;;;4993353;28;20053;-78
2023/12/24 05:32:33;;;;;;;17.52;6.43;;;9.90;99.90;;;;;;4993282;28;20050;-78
2023/12/24 05:34:59;;;;;;;28.60;6.35;;;9.90;99.90;;;;;;4993494;28;20521;-77
2023/12/24 05:37:24;;;;;;;18.38;7.32;;;9.90;99.90;;;;;;4993263;28;20064;-78
2023/12/24 05:39:50;;;;;;;21.95;6.65;;;9.90;99.90;;;;;;4994280;28;20437;-76
2023/12/24 05:42:15;;;;;;;16.60;5.93;;;9.90;99.90;;;;;;4994571;28;20038;-77
2023/12/24 05:44:41;;;;;;;24.75;7.13;;;9.90;99.90;;;;;;4994343;28;20050;-79
2023/12/24 05:47:07;;;;;;;21.63;6.18;;;9.90;99.90;;;;;;4993093;28;20466;-78
2023/12/24 05:49:33;;;;;;;18.85;6.15;;;10.00;99.90;;;;;;4994454;28;20064;-77
2023/12/24 05:51:59;;;;;;;17.10;6.32;;;10.00;99.90;;;;;;4993006;28;20053;-76
2023/12/24 05:54:25;;;;;;;20.38;6.10;;;10.00;99.90;;;;;;4992769;28;20125;-74
2023/12/24 05:56:50;;;;;;;18.45;6.07;;;10.00;99.90;;;;;;4993316;28;20508;-76
2023/12/24 05:59:16;;;;;;;14.07;5.05;;;10.00;99.90;;;;;;4993478;28;20047;-74
2023/12/24 06:01:43;;;;;;;18.15;5.20;;;10.00;99.90;;;;;;4993208;28;20478;-75
2023/12/24 06:04:10;;;;;;;20.08;6.13;;;10.10;99.90;;;;;;4993393;28;20050;-78
2023/12/24 06:06:40;;;;;;;22.88;6.88;;;10.00;99.90;;;;;;4992849;28;20038;-75
2023/12/24 06:09:06;;;;;;;20.55;6.75;;;10.00;99.90;;;;;;4993185;28;20050;-74
2023/12/24 06:11:32;;;;;;;24.95;6.60;;;10.10;99.90;;;;;;4994265;28;20458;-76
2023/12/24 06:13:58;;;;;;;24.65;6.70;;;10.10;99.90;;;;;;4992994;28;20045;-77
2023/12/24 06:16:23;;;;;;;21.75;6.00;;;10.10;99.90;;;;;;4993066;28;20409;-78
2023/12/24 06:18:49;;;;;;;23.65;5.97;;;10.10;99.90;;;;;;4976822;28;20509;-80
2023/12/24 06:21:15;;;;;;;31.83;7.05;;;10.10;99.90;;;;;;4992856;28;20482;-76
2023/12/24 06:23:40;;;;;;;26.83;6.20;;;10.10;99.90;;;;;;4992560;28;20084;-79
2023/12/24 06:26:06;;;;;;;25.10;5.65;;;10.20;99.90;;;;;;4994008;28;20039;-78
2023/12/24 06:28:32;;;;;;;27.67;6.97;;;10.10;99.90;;;;;;4976405;28;20044;-76
2023/12/24 06:30:59;;;;;;;17.73;4.93;;;10.20;99.90;;;;;;4992719;28;20046;-77
2023/12/24 06:33:25;;;;;;;22.23;5.65;;;10.20;99.90;;;;;;4992641;28;20486;-77
2023/12/24 06:35:51;;;;;;;25.25;6.68;;;10.20;99.90;;;;;;4992495;28;20489;-77
2023/12/24 06:38:17;;;;;;;29.17;5.97;;;10.20;99.90;;;;;;4993949;28;20042;-77
2023/12/24 06:40:42;;;;;;;27.65;9.80;;;10.30;99.90;;;;;;4992597;28;20134;-78
2023/12/24 06:43:08;;;;;;;33.40;7.50;;;10.30;99.90;;;;;;4992518;28;20117;-76
2023/12/24 06:45:34;;;;;;;25.75;4.68;;;10.30;99.90;;;;;;4992624;28;20118;-75
2023/12/24 06:48:02;;;;;;;25.98;6.88;;;10.30;99.90;;;;;;4992753;28;20038;-76
2023/12/24 06:50:28;;;;;;;22.58;8.45;;;10.30;99.90;;;;;;4992842;28;20419;-77
2023/12/24 06:52:54;;;;;;;23.83;10.02;;;10.30;99.90;;;;;;4993667;28;20057;-78
2023/12/24 06:55:20;;;;;;;25.50;7.70;;;10.30;99.90;;;;;;4992654;28;20406;-76
2023/12/24 06:57:45;;;;;;;27.90;5.13;;;10.30;99.90;;;;;;4992082;28;20425;-77
2023/12/24 07:00:11;;;;;;;11.55;3.10;;;10.40;99.90;;;;;;4993942;28;20057;-78
2023/12/24 07:02:37;;;;;;;26.63;5.60;;;10.40;99.90;;;;;;4992586;28;20540;-78
2023/12/24 07:05:03;;;;;;;32.20;4.93;;;10.40;99.90;;;;;;4993417;28;20035;-77
2023/12/24 07:07:29;;;;;;;25.00;4.78;;;10.30;99.90;;;;;;4996177;28;20074;-78
2023/12/24 07:09:54;;;;;;;23.83;5.32;;;10.40;99.90;;;;;;4996245;28;20517;-75
2023/12/24 07:12:20;;;;;;;23.52;4.95;;;10.40;99.90;;;;;;4995916;28;20038;-75
2023/12/24 07:14:46;;;;;;;25.25;5.05;;;10.40;99.90;;;;;;4996170;28;20040;-76
2023/12/24 07:17:11;;;;;;;19.23;4.68;;;10.40;99.90;;;;;;4997116;28;20038;-77
2023/12/24 07:19:37;;;;;;;22.73;4.28;;;10.40;99.90;;;;;;4996912;28;20038;-75
2023/12/24 07:22:03;;;;;;;30.80;5.10;;;10.50;99.90;;;;;;4995768;28;20482;-76
2023/12/24 07:24:28;;;;;;;19.20;4.47;;;10.50;99.90;;;;;;4995879;28;20051;-75
2023/12/24 07:26:54;;;;;;;29.77;5.60;;;10.50;99.90;;;;;;4997188;28;20034;-76
2023/12/24 07:29:19;;;;;;;17.52;4.20;;;10.50;99.90;;;;;;4997017;28;20125;-76
2023/12/24 07:31:47;;;;;;;19.10;4.72;;;10.60;99.90;;;;;;4996696;28;20061;-79
2023/12/24 07:34:13;;;;;;;20.15;5.20;;;10.50;99.90;;;;;;4996981;28;20045;-77
2023/12/24 07:36:38;;;;;;;23.48;4.80;;;10.60;99.90;;;;;;4996777;28;20120;-78
2023/12/24 07:39:04;;;;;;;14.60;3.97;;;10.60;99.90;;;;;;4978956;28;20069;-75
2023/12/24 07:41:31;;;;;;;22.20;5.97;;;10.60;99.90;;;;;;4995214;28;20042;-77
2023/12/24 07:43:57;;;;;;;24.40;5.65;;;10.60;99.90;;;;;;4995170;28;20042;-78
2023/12/24 07:46:22;;;;;;;27.25;4.65;;;10.60;99.90;;;;;;4996542;28;20113;-76
2023/12/24 07:48:48;;;;;;;27.92;4.88;;;10.60;99.90;;;;;;4996898;28;20038;-76
2023/12/24 07:51:15;;;;;;;18.92;4.13;;;10.60;99.90;;;;;;4996727;28;20042;-75
2023/12/24 07:53:40;;;;;;;25.42;3.95;;;10.70;99.90;;;;;;4996623;28;20049;-77
2023/12/24 07:56:06;;;;;;;24.83;4.10;;;10.60;99.90;;;;;;4995544;28;20035;-75
2023/12/24 07:58:33;;;;;;;21.88;3.92;;;10.60;99.90;;;;;;4995169;28;20391;-76
2023/12/24 08:00:59;;;;;;;25.95;3.78;;;10.70;99.90;;;;;;4995343;28;20049;-76
2023/12/24 08:03:24;;;;;;;20.88;3.60;;;10.70;99.90;;;;;;4996444;28;20403;-78
2023/12/24 08:05:50;;;;;;;25.52;4.40;;;10.70;99.90;;;;;;4994928;28;20137;-76
2023/12/24 08:08:15;;;;;;;28.40;5.55;;;10.70;99.90;;;;;;4994989;28;20470;-75
2023/12/24 08:10:43;;;;;;;35.72;4.63;;;10.70;99.90;;;;;;4994542;28;20101;-77
2023/12/24 08:13:09;;;;;;;22.35;4.00;;;10.70;99.90;;;;;;4996059;28;20089;-76
2023/12/24 08:15:37;;;;;;;27.13;4.95;;;10.70;99.90;;;;;;4994235;28;20042;-74
2023/12/24 08:18:03;;;;;;;24.48;5.05;;;10.70;99.90;;;;;;4978312;28;20042;-76
2023/12/24 08:20:29;;;;;;;19.00;3.58;;;10.70;99.90;;;;;;4994545;28;20540;-74
2023/12/24 08:22:55;;;;;;;29.45;4.78;;;10.70;99.90;;;;;;4995942;28;20031;-78
2023/12/24 08:25:21;;;;;;;21.25;5.18;;;10.70;99.90;;;;;;4995862;28;20042;-74
2023/12/24 08:27:47;;;;;;;29.98;5.88;;;10.70;99.90;;;;;;4994419;28;20084;-74
2023/12/24 08:30:13;;;;;;;22.80;3.83;;;10.80;99.90;;;;;;4995516;28;20443;-76
2023/12/24 08:32:38;;;;;;;22.55;4.20;;;10.90;99.90;;;;;;4995485;28;20090;-77
2023/12/24 08:35:04;;;;;;;25.40;4.32;;;10.80;99.90;;;;;;4994515;28;20453;-75
2023/12/24 08:37:30;;;;;;;26.67;4.55;;;10.80;99.90;;;;;;4992750;28;20326;-76
2023/12/24 08:39:56;;;;;;;21.10;4.55;;;10.80;99.90;;;;;;4995602;28;20105;-74
2023/12/24 08:42:21;;;;;;;22.35;4.43;;;10.90;99.90;;;;;;4995156;28;20042;-76
2023/12/24 08:44:47;;;;;;;22.85;4.18;;;10.90;99.90;;;;;;4993308;28;20046;-75
2023/12/24 08:47:13;;;;;;;24.20;4.00;;;10.90;99.90;;;;;;4978113;28;20430;-75
2023/12/24 08:49:38;;;;;;;29.02;4.65;;;10.90;99.90;;;;;;4993786;28;20497;-74
2023/12/24 08:52:04;;;;;;;23.98;4.22;;;11.00;99.90;;;;;;4993906;28;20077;-76
2023/12/24 08:54:30;;;;;;;19.20;3.95;;;10.90;99.90;;;;;;4993812;28;20050;-76
2023/12/24 08:56:55;;;;;;;22.08;4.65;;;10.90;99.90;;;;;;4995107;28;20030;-77
2023/12/24 08:59:21;;;;;;;27.95;3.92;;;10.90;99.90;;;;;;4993675;28;20034;-75
2023/12/24 09:01:49;;;;;;;20.08;3.42;;;10.90;99.90;;;;;;4993658;28;20533;-77
2023/12/24 09:04:16;;;;;;;24.55;4.47;;;10.90;99.90;;;;;;4994090;28;20398;-73
2023/12/24 09:06:41;;;;;;;17.35;4.25;;;10.90;99.90;;;;;;4993883;28;20042;-74
2023/12/24 09:09:08;;;;;;;27.45;6.03;;;10.90;99.90;;;;;;4993744;28;20049;-75
2023/12/24 09:11:35;;;;;;;18.65;4.20;;;10.90;99.90;;;;;;4977344;28;20088;-76
2023/12/24 09:14:01;;;;;;;18.88;4.15;;;10.90;99.90;;;;;;4993693;28;20042;-77
2023/12/24 09:16:26;;;;;;;26.40;4.35;;;10.90;99.90;;;;;;4993467;28;20478;-75
2023/12/24 09:18:52;;;;;;;26.88;3.58;;;10.90;99.90;;;;;;4993588;28;20044;-78
2023/12/24 09:21:18;;;;;;;21.08;4.00;;;11.00;99.90;;;;;;4994902;28;20390;-77
2023/12/24 09:23:43;;;;;;;18.88;3.63;;;11.00;99.90;;;;;;4993162;28;20560;-75
2023/12/24 09:26:09;;;;;;;16.25;3.13;;;11.00;99.90;;;;;;4994724;28;20121;-76
2023/12/24 09:28:35;;;;;;;21.65;4.03;;;11.00;99.90;;;;;;4992695;28;20044;-73
2023/12/24 09:31:00;;;;;;;19.80;3.85;;;11.10;99.90;;;;;;4993435;28;20109;-77
2023/12/24 09:33:26;;;;;;;17.00;3.30;;;11.10;99.90;;;;;;4994280;28;20462;-77
2023/12/24 09:35:51;;;;;;;22.25;4.03;;;11.10;99.90;;;;;;4994500;28;20046;-76
2023/12/24 09:38:17;;;;;;;15.88;3.50;;;11.10;99.90;;;;;;4994498;28;20038;-75
2023/12/24 09:40:43;;;;;;;24.60;4.07;;;11.20;99.90;;;;;;4977175;28;20478;-74
2023/12/24 09:43:08;;;;;;;20.05;3.60;;;11.20;99.90;;;;;;4993001;28;20046;-76
2023/12/24 09:45:37;;;;;;;24.38;4.10;;;11.30;99.90;;;;;;4992916;28;20081;-76
2023/12/24 09:48:02;;;;;;;16.80;4.18;;;11.30;99.90;;;;;;4993014;28;20433;-75
2023/12/24 09:50:28;;;;;;;25.55;5.65;;;11.30;99.90;;;;;;4994493;28;20026;-77
2023/12/24 09:52:54;;;;;;;11.50;3.22;;;11.30;99.90;;;;;;4992905;28;20080;-75
2023/12/24 09:55:19;;;;;;;14.88;3.45;;;11.30;99.90;;;;;;4993068;28;20054;-76
2023/12/24 09:57:45;;;;;;;21.52;3.90;;;11.30;99.90;;;;;;4994537;28;20459;-75
2023/12/24 10:00:12;;;;;;;15.50;3.10;;;11.40;99.90;;;;;;4992873;28;20466;-74
2023/12/24 10:02:37;;;;;;;16.80;4.10;;;11.40;99.90;;;;;;4992687;28;20517;-78
2023/12/24 10:05:04;;;;;;;13.52;3.58;;;11.40;99.90;;;;;;4992850;28;20202;-75
2023/12/24 10:07:40;;;;;;;16.58;3.08;;;11.40;99.90;;;;;;4994326;28;20053;-75
2023/12/24 10:10:10;;;;;;;10.95;3.25;;;11.40;99.90;;;;;;4992571;28;20058;-75
2023/12/24 10:12:36;;;;;;;20.48;4.28;;;11.50;99.90;;;;;;4992928;28;20176;-76
2023/12/24 10:15:02;;;;;;;17.40;3.42;;;11.40;99.90;;;;;;4993899;28;20074;-75
2023/12/24 10:17:29;;;;;;;15.00;3.47;;;11.50;99.90;;;;;;4992481;28;20078;-76
2023/12/24 10:19:59;;;;;;;19.67;3.30;;;11.50;99.90;;;;;;4992804;28;20386;-77
2023/12/24 10:22:25;;;;;;;12.38;2.83;;;11.50;99.90;;;;;;4993541;28;20565;-76
2023/12/24 10:25:02;;;;;;;17.30;3.72;;;11.60;99.90;;;;;;4992488;28;20042;-75
2023/12/24 10:27:28;;;;;;;16.23;3.03;;;11.60;99.90;;;;;;4994067;28;20433;-75
2023/12/24 10:30:07;;;;;;;16.48;4.10;;;11.60;99.90;;;;;;4994245;28;20031;-73
2023/12/24 10:32:32;;;;;;;15.93;2.95;;;11.60;99.90;;;;;;4993199;28;20401;-77
2023/12/24 10:34:58;;;;;;;16.00;3.65;;;11.70;99.90;;;;;;4992513;28;20042;-77
2023/12/24 10:37:29;;;;;;;12.23;2.75;;;11.70;99.90;;;;;;4992484;28;20042;-75
2023/12/24 10:40:04;;;;;;;21.88;3.97;;;11.80;99.90;;;;;;4994736;28;20049;-76
2023/12/24 10:42:29;;;;;;;;;;;11.80;99.90;;;;;;4996652;28;20533;-74
2023/12/24 10:44:55;;;;;;;17.55;3.55;;;11.80;99.90;;;;;;4996393;28;19961;-75
2023/12/24 10:47:20;;;;;;;19.38;3.90;;;11.80;99.90;;;;;;4997768;28;20121;-76
2023/12/24 10:49:46;;;;;;;26.27;4.75;;;11.90;99.90;;;;;;4997513;28;20409;-74
2023/12/24 10:52:12;;;;;;;12.65;3.72;;;11.90;99.90;;;;;;4997607;28;20042;-75
2023/12/24 10:54:40;;;;;;;12.20;3.70;;;12.00;99.90;;;;;;4996258;28;20045;-78
2023/12/24 10:57:09;;;;;;;20.35;3.97;;;11.90;99.90;;;;;;4996085;28;20045;-76
2023/12/24 11:00:09;;;;;;;20.23;3.85;;;12.00;99.90;;;;;;4995743;28;20050;-74
2023/12/24 11:02:36;;;;;;;22.73;3.58;;;12.00;99.90;;;;;;4997105;28;20042;-74
2023/12/24 11:05:01;;;;;;;14.35;2.92;;;11.90;99.90;;;;;;4995893;28;20398;-74
2023/12/24 11:07:33;;;;;;;16.58;3.75;;;11.90;99.90;;;;;;4995855;28;20038;-75
2023/12/24 11:10:06;;;;;;;15.02;3.33;;;11.90;99.90;;;;;;4995695;28;20052;-74
2023/12/24 11:12:39;;;;;;;21.33;3.95;;;11.90;99.90;;;;;;4996042;28;20132;-76
2023/12/24 11:15:08;;;;;;;11.45;2.83;;;11.90;99.90;;;;;;4995975;28;20053;-77
2023/12/24 11:17:33;;;;;;;19.88;4.07;;;12.00;99.90;;;;;;4995926;28;20046;-76
2023/12/24 11:20:20;;;;;;;12.98;3.30;;;11.90;99.90;;;;;;4997048;28;20042;-74
2023/12/24 11:23:04;;;;;;;14.73;4.45;;;11.90;99.90;;;;;;4997137;28;20046;-75
2023/12/24 11:25:47;;;;;;;13.65;3.90;;;12.00;99.90;;;;;;4997096;28;20144;-74
2023/12/24 11:28:25;;;;;;;16.05;3.15;;;12.00;99.90;;;;;;4996672;28;20068;-76
2023/12/24 11:30:51;;;;;;;14.63;3.25;;;11.90;99.90;;;;;;4995746;28;20117;-77
2023/12/24 11:33:44;;;;;;;15.30;3.30;;;11.90;99.90;;;;;;4995607;28;20121;-77
2023/12/24 11:36:11;;;;;;;18.17;3.35;;;11.90;99.90;;;;;;4992474;28;20066;-74
2023/12/24 11:38:39;;;;;;;15.63;3.22;;;11.90;99.90;;;;;;4996690;28;20125;-75
2023/12/24 11:41:10;;;;;;;13.60;3.20;;;11.90;99.90;;;;;;4995417;28;20049;-76
2023/12/24 11:43:37;;;;;;;14.77;2.65;;;11.90;99.90;;;;;;4994712;28;20042;-77
2023/12/24 11:46:04;;;;;;;10.52;2.70;;;12.00;99.90;;;;;;4996242;28;20115;-76
2023/12/24 11:48:32;;;;;;;13.70;3.10;;;12.00;99.90;;;;;;4994961;28;20129;-76
2023/12/24 11:51:03;;;;;;;17.98;3.95;;;12.00;99.90;;;;;;4995943;28;20038;-72
2023/12/24 11:53:40;;;;;;;16.08;3.78;;;12.00;99.90;;;;;;4996502;28;20104;-74
2023/12/24 11:56:14;;;;;;;19.13;4.10;;;11.90;99.90;;;;;;4995005;28;20054;-77
2023/12/24 11:58:44;;;;;;;17.50;3.80;;;12.00;99.90;;;;;;4996049;28;20034;-73
2023/12/24 12:01:10;;;;;;;12.73;3.72;;;12.00;99.90;;;;;;4995042;28;20054;-77
2023/12/24 12:03:37;;;;;;;20.40;4.15;;;12.00;99.90;;;;;;4996210;28;20046;-79
2023/12/24 12:06:04;;;;;;;21.67;4.65;;;12.00;99.90;;;;;;4996334;28;20113;-75
2023/12/24 12:08:30;;;;;;;14.63;3.50;;;12.00;99.90;;;;;;4994516;28;20042;-78
2023/12/24 12:10:56;;;;;;;18.70;3.55;;;12.00;99.90;;;;;;4995982;28;20049;-78
2023/12/24 12:13:22;;;;;;;13.57;3.40;;;12.00;99.90;;;;;;4994396;28;20046;-76
2023/12/24 12:15:48;;;;;;;13.30;3.55;;;12.00;99.90;;;;;;4995076;28;20061;-77
2023/12/24 12:18:15;;;;;;;17.67;3.90;;;12.00;99.90;;;;;;4996077;28;20034;-76
2023/12/24 12:20:41;;;;;;;14.88;4.18;;;12.00;99.90;;;;;;4994685;28;20104;-74
2023/12/24 12:23:08;;;;;;;19.17;3.95;;;12.10;99.90;;;;;;4995872;28;20051;-80
2023/12/24 12:25:33;;;;;;;18.80;4.03;;;12.00;99.90;;;;;;4994711;28;20389;-77
2023/12/24 12:27:59;;;;;;;20.63;4.15;;;12.00;99.90;;;;;;4994606;28;20046;-78
2023/12/24 12:30:25;;;;;;;15.23;3.50;;;11.90;99.90;;;;;;4994207;28;20556;-74
2023/12/24 12:32:51;;;;;;;21.35;4.53;;;12.00;99.90;;;;;;4994378;28;20081;-76
2023/12/24 12:35:17;;;;;;;15.88;4.28;;;11.90;99.90;;;;;;4995734;28;20038;-77
2023/12/24 12:37:42;;;;;;;20.52;5.40;;;12.00;99.90;;;;;;4995352;28;20136;-75
2023/12/24 12:40:09;;;;;;;19.35;4.25;;;11.90;99.90;;;;;;4994449;28;20073;-74
2023/12/24 12:42:35;;;;;;;19.42;6.05;;;12.00;99.90;;;;;;4995262;28;20117;-76
2023/12/24 12:45:01;;;;;;;21.17;4.65;;;12.00;99.90;;;;;;4995387;28;20553;-76
2023/12/24 12:47:26;;;;;;;16.77;4.55;;;12.00;99.90;;;;;;4993936;28;20081;-75
2023/12/24 12:49:52;;;;;;;18.02;4.53;;;12.00;99.90;;;;;;4993938;28;20070;-73
2023/12/24 12:52:18;;;;;;;21.08;3.97;;;12.00;99.90;;;;;;4995447;28;20077;-74
2023/12/24 12:54:44;;;;;;;16.40;4.57;;;12.00;99.90;;;;;;4993994;28;20050;-74
2023/12/24 12:57:10;;;;;;;19.17;4.15;;;12.00;99.90;;;;;;4995089;28;20042;-74
2023/12/24 12:59:36;;;;;;;24.60;4.28;;;12.00;99.90;;;;;;4993609;28;20540;-78
2023/12/24 13:02:02;;;;;;;33.75;5.20;;;12.10;99.90;;;;;;4994843;28;20039;-74
2023/12/24 13:04:34;;;;;;;23.92;5.10;;;12.10;99.90;;;;;;4977090;28;20038;-77
2023/12/24 13:07:07;;;;;;;14.82;3.80;;;12.00;99.90;;;;;;4995259;28;20038;-79
2023/12/24 13:09:43;;;;;;;20.77;4.25;;;12.10;99.90;;;;;;4993556;28;20461;-77
2023/12/24 13:12:10;;;;;;;19.63;3.47;;;12.10;99.90;;;;;;4993527;28;20117;-77
2023/12/24 13:14:36;;;;;;;32.97;6.18;;;12.10;99.90;;;;;;4995077;28;20169;-76
2023/12/24 13:17:11;;;;;;;33.95;5.15;;;12.10;99.90;;;;;;4994964;28;20079;-79
2023/12/24 13:19:40;;;;;;;23.80;4.47;;;12.00;99.90;;;;;;4993416;28;20124;-77
2023/12/24 13:22:06;;;;;;;26.15;5.47;;;12.00;99.90;;;;;;4994470;28;20489;-75
2023/12/24 13:24:33;;;;;;;17.42;4.05;;;12.00;99.90;;;;;;4993349;28;20049;-79
2023/12/24 13:26:59;;;;;;;27.13;4.65;;;11.90;99.90;;;;;;4993626;28;20030;-77
2023/12/24 13:29:26;;;;;;;18.80;4.60;;;11.90;99.90;;;;;;4993684;28;20453;-78
2023/12/24 13:31:52;;;;;;;17.40;3.50;;;11.90;99.90;;;;;;4993350;28;20038;-76
2023/12/24 13:34:20;;;;;;;20.52;3.75;;;11.90;99.90;;;;;;4993437;28;20038;-76
2023/12/24 13:36:48;;;;;;;20.17;3.72;;;11.80;99.90;;;;;;4994633;28;20504;-82
2023/12/24 13:39:15;;;;;;;28.55;5.47;;;11.80;99.90;;;;;;4976890;28;20092;-78
2023/12/24 13:41:42;;;;;;;18.40;3.78;;;11.80;99.90;;;;;;4994998;28;20181;-76
2023/12/24 13:44:09;;;;;;;17.50;3.13;;;11.80;99.90;;;;;;4994448;28;20053;-80
2023/12/24 13:46:35;;;;;;;13.93;3.67;;;11.70;99.90;;;;;;4994309;28;20045;-77
2023/12/24 13:49:00;;;;;;;14.27;3.67;;;11.70;99.90;;;;;;4992914;28;20038;-80
2023/12/24 13:51:27;;;;;;;16.92;4.03;;;11.70;99.90;;;;;;4994656;28;20037;-80
2023/12/24 13:53:53;;;;;;;18.70;4.30;;;11.60;99.90;;;;;;4993038;28;20051;-81
2023/12/24 13:56:19;;;;;;;9.98;4.40;;;11.60;99.90;;;;;;4994465;28;20042;-80
2023/12/24 13:58:45;;;;;;;12.18;3.97;;;11.70;99.90;;;;;;4994059;28;20042;-77
2023/12/24 14:01:10;;;;;;;15.93;5.10;;;11.60;99.90;;;;;;4992831;28;20088;-81
2023/12/24 14:03:36;;;;;;;14.63;4.07;;;11.60;99.90;;;;;;4993051;28;20078;-79
2023/12/24 14:06:04;;;;;;;13.25;3.60;;;11.60;99.90;;;;;;4993397;28;20097;-81
2023/12/24 14:08:30;;;;;;;13.10;3.25;;;11.60;99.90;;;;;;4994334;28;20087;-79
2023/12/24 14:10:56;;;;;;;14.73;3.55;;;11.60;99.90;;;;;;4993014;28;20084;-79
2023/12/24 14:13:22;;;;;;;11.52;3.42;;;11.60;99.90;;;;;;4994285;28;20454;-81
2023/12/24 14:15:47;;;;;;;12.13;2.85;;;11.60;99.90;;;;;;4992913;28;20053;-82
2023/12/24 14:18:13;;;;;;;10.48;2.92;;;11.50;99.90;;;;;;4992672;28;20050;-81
2023/12/24 14:20:39;;;;;;;12.70;2.55;;;11.60;99.90;;;;;;4992807;28;20097;-83
2023/12/24 14:23:04;;;;;;;10.07;2.40;;;11.60;99.90;;;;;;4992732;28;20044;-78
2023/12/24 14:25:30;;;;;;;13.68;3.30;;;11.60;99.90;;;;;;4992902;28;20092;-78
2023/12/24 14:27:56;;;;;;;14.38;2.45;;;11.60;99.90;;;;;;4992705;28;20096;-78
2023/12/24 14:30:22;;;;;;;11.38;2.47;;;11.60;99.90;;;;;;4992624;28;20078;-80
2023/12/24 14:32:48;;;;;;;7.50;1.92;;;11.60;99.90;;;;;;4992775;28;20461;-78
2023/12/24 14:35:14;;;;;;;9.48;2.20;;;11.70;99.90;;;;;;4993790;28;20117;-80
2023/12/24 14:37:39;;;;;;;8.45;1.90;;;11.80;99.90;;;;;;4992522;28;20113;-77
2023/12/24 14:40:06;;;;;;;8.95;2.33;;;11.80;99.90;;;;;;4994343;28;20047;-79
2023/12/24 14:42:32;;;;;;;13.05;2.10;;;11.80;99.90;;;;;;4994074;28;20050;-80
2023/12/24 14:44:58;;;;;;;8.85;2.40;;;11.80;99.90;;;;;;4994063;28;20044;-79
2023/12/24 14:47:29;;;;;;;11.25;1.90;;;11.80;99.90;;;;;;4993594;28;20030;-78
2023/12/24 14:49:58;;;;;;;11.43;2.58;;;11.80;99.90;;;;;;4992380;28;20482;-75
2023/12/24 14:52:26;;;;;;;9.00;1.95;;;11.80;99.90;;;;;;4992516;28;20046;-80
2023/12/24 14:54:53;;;;;;;13.50;2.20;;;11.90;99.90;;;;;;4976582;28;20057;-79
2023/12/24 14:57:19;;;;;;;7.15;1.75;;;11.90;99.90;;;;;;4992565;28;20039;-77
2023/12/24 14:59:48;;;;;;;10.93;2.08;;;11.90;99.90;;;;;;4992358;28;20049;-77
2023/12/24 15:02:14;;;;;;;9.25;1.85;;;11.90;99.90;;;;;;4992312;28;20045;-78
2023/12/24 15:04:43;;;;;;;8.20;2.63;;;11.90;99.90;;;;;;4994067;28;20050;-77
2023/12/24 15:07:08;;;;;;;10.20;2.42;;;11.90;99.90;;;;;;4992441;28;20042;-78
2023/12/24 15:09:34;;;;;;;9.73;2.95;;;11.90;99.90;;;;;;4993657;28;20089;-76
2023/12/24 15:12:00;;;;;;;10.60;2.90;;;11.90;99.90;;;;;;4992365;28;20166;-74
2023/12/24 15:14:26;;;;;;;10.00;2.97;;;11.90;99.90;;;;;;4993908;28;20034;-74
2023/12/24 15:16:51;;;;;;;11.77;2.95;;;11.90;99.90;;;;;;4992772;28;20428;-75
2023/12/24 15:19:17;;;;;;;12.73;3.92;;;11.90;99.90;;;;;;4993587;28;20541;-76
2023/12/24 15:21:43;;;;;;;14.18;3.55;;;11.80;99.90;;;;;;4993861;28;20041;-77
2023/12/24 15:24:11;;;;;;;10.57;3.10;;;11.90;99.90;;;;;;4993950;28;20039;-77
2023/12/24 15:26:41;;;;;;;8.70;2.35;;;11.90;99.90;;;;;;4994444;28;20081;-76
2023/12/24 15:29:10;;;;;;;17.48;3.63;;;11.90;99.90;;;;;;4995896;28;20034;-74
2023/12/24 15:31:39;;;;;;;18.92;4.47;;;11.90;99.90;;;;;;4997540;28;20049;-75
2023/12/24 15:34:05;;;;;;;9.20;3.17;;;11.90;99.90;;;;;;4996014;28;20050;-76
2023/12/24 15:36:38;;;;;;;17.80;4.00;;;12.00;99.90;;;;;;4996663;28;20042;-78
2023/12/24 15:39:04;;;;;;;21.92;4.13;;;12.00;99.90;;;;;;4995376;28;20042;-78
2023/12/24 15:41:30;;;;;;;15.07;3.42;;;12.00;99.90;;;;;;4995306;28;20042;-74
2023/12/24 15:43:56;;;;;;;19.83;4.57;;;11.90;99.90;;;;;;4995105;28;20061;-75
2023/12/24 15:46:21;;;;;;;26.95;5.97;;;11.90;99.90;;;;;;4995828;28;20034;-78
2023/12/24 15:48:47;;;;;;;18.33;3.95;;;11.90;99.90;;;;;;4995284;28;20042;-77
2023/12/24 15:51:13;;;;;;;22.10;4.70;;;12.00;99.90;;;;;;4995520;28;20049;-76
2023/12/24 15:53:40;;;;;;;23.75;5.07;;;11.90;99.90;;;;;;4996947;28;20082;-77
2023/12/24 15:56:19;;;;;;;18.48;5.10;;;12.00;99.90;;;;;;4995464;28;20088;-75
2023/12/24 15:58:45;;;;;;;23.35;5.53;;;12.00;99.90;;;;;;4995128;28;20046;-76
2023/12/24 16:01:11;;;;;;;27.33;5.32;;;12.00;99.90;;;;;;4995312;28;20129;-78
2023/12/24 16:03:37;;;;;;;22.65;5.43;;;12.00;99.90;;;;;;4995015;28;20129;-75
2023/12/24 16:06:03;;;;;;;26.90;4.70;;;12.00;99.90;;;;;;4996404;28;20088;-77